createdAt,value
2019-01-31T00:00:02.660Z,991.60
2019-01-31T00:01:02.639Z,991.64
2019-01-31T00:02:02.645Z,991.62
2019-01-31T00:03:02.632Z,991.62
2019-01-31T00:04:02.622Z,991.61
2019-01-31T00:05:02.614Z,991.59
2019-01-31T00:06:02.814Z,991.59
2019-01-31T00:07:02.587Z,991.61
2019-01-31T00:08:02.576Z,991.62
2019-01-31T00:09:02.591Z,991.66
2019-01-31T00:10:02.771Z,991.62
2019-01-31T00:11:02.573Z,991.63
2019-01-31T00:12:02.557Z,991.67
2019-01-31T00:13:02.547Z,991.64
2019-01-31T00:14:02.554Z,991.62
2019-01-31T00:15:02.543Z,991.64
2019-01-31T00:16:02.541Z,991.63
2019-01-31T00:17:02.521Z,991.62
2019-01-31T00:18:02.541Z,991.58
2019-01-31T00:19:02.504Z,991.62
2019-01-31T00:20:02.513Z,991.62
2019-01-31T00:21:02.489Z,991.64
2019-01-31T00:22:02.724Z,991.62
2019-01-31T00:23:02.479Z,991.62
2019-01-31T00:24:02.479Z,991.62
2019-01-31T00:25:02.469Z,991.65
2019-01-31T00:26:02.662Z,991.59
2019-01-31T00:27:02.458Z,991.64
2019-01-31T00:28:02.648Z,991.66
2019-01-31T00:29:02.439Z,991.61
2019-01-31T00:30:02.649Z,991.63
2019-01-31T00:31:02.439Z,991.71
2019-01-31T00:32:02.416Z,991.71
2019-01-31T00:33:02.621Z,991.74
2019-01-31T00:34:02.416Z,991.75
2019-01-31T00:35:02.398Z,991.72
2019-01-31T00:36:02.398Z,991.72
2019-01-31T00:37:02.394Z,991.75
2019-01-31T00:38:02.383Z,991.73
2019-01-31T00:39:02.576Z,991.76
2019-01-31T00:40:02.380Z,991.71
2019-01-31T00:41:02.375Z,991.77
2019-01-31T00:42:02.372Z,991.81
2019-01-31T00:43:02.350Z,991.76
2019-01-31T00:44:02.362Z,991.79
2019-01-31T00:45:02.334Z,991.81
2019-01-31T00:46:02.324Z,991.80
2019-01-31T00:47:02.378Z,991.82
2019-01-31T00:48:02.530Z,991.80
2019-01-31T00:49:02.309Z,991.80
2019-01-31T00:50:02.317Z,991.84
2019-01-31T00:51:02.294Z,991.81
2019-01-31T00:52:02.287Z,991.82
2019-01-31T00:53:02.280Z,991.82
2019-01-31T00:54:02.277Z,991.86
2019-01-31T00:55:02.470Z,991.82
2019-01-31T00:56:02.258Z,991.83
2019-01-31T00:57:02.271Z,991.85
2019-01-31T00:58:02.351Z,991.87
2019-01-31T00:59:02.241Z,991.89
2019-01-31T01:00:02.235Z,991.89
2019-01-31T01:01:02.230Z,991.92
2019-01-31T01:02:02.444Z,991.90
2019-01-31T01:03:02.208Z,991.90
2019-01-31T01:04:02.218Z,991.92
2019-01-31T01:05:02.214Z,991.92
2019-01-31T01:06:02.410Z,991.91
2019-01-31T01:07:02.185Z,991.93
2019-01-31T01:08:02.189Z,991.92
2019-01-31T01:09:07.860Z,991.98
2019-01-31T01:10:02.185Z,991.95
2019-01-31T01:11:02.371Z,991.93
2019-01-31T01:12:04.478Z,991.93
2019-01-31T01:13:02.143Z,991.96
2019-01-31T01:14:02.139Z,991.93
2019-01-31T01:15:02.351Z,991.88
2019-01-31T01:16:02.139Z,991.90
2019-01-31T01:17:02.129Z,991.97
2019-01-31T01:18:02.111Z,991.96
2019-01-31T01:19:02.321Z,991.96
2019-01-31T01:20:02.125Z,992.00
2019-01-31T01:21:02.104Z,992.00
2019-01-31T01:22:02.300Z,992.00
2019-01-31T01:23:02.079Z,991.98
2019-01-31T01:24:02.069Z,991.97
2019-01-31T01:25:02.066Z,991.97
2019-01-31T01:26:02.052Z,991.96
2019-01-31T01:27:02.044Z,991.98
2019-01-31T01:28:02.058Z,991.95
2019-01-31T01:29:02.241Z,991.92
2019-01-31T01:30:02.248Z,991.90
2019-01-31T01:31:02.033Z,991.89
2019-01-31T01:32:02.014Z,991.89
2019-01-31T01:33:02.007Z,991.90
2019-01-31T01:34:02.004Z,991.89
2019-01-31T01:35:02.204Z,991.94
2019-01-31T01:36:02.196Z,991.87
2019-01-31T01:37:02.001Z,991.92
2019-01-31T01:38:01.993Z,991.93
2019-01-31T01:39:01.972Z,991.93
2019-01-31T01:40:01.973Z,991.94
2019-01-31T01:41:01.957Z,991.93
2019-01-31T01:42:02.160Z,991.95
2019-01-31T01:43:01.934Z,991.95
2019-01-31T01:44:01.943Z,991.96
2019-01-31T01:45:02.140Z,991.96
2019-01-31T01:46:01.918Z,991.96
2019-01-31T01:47:02.122Z,991.96
2019-01-31T01:48:01.902Z,991.97
2019-01-31T01:49:01.903Z,991.94
2019-01-31T01:50:01.883Z,991.96
2019-01-31T01:51:01.893Z,991.95
2019-01-31T01:52:01.905Z,991.95
2019-01-31T01:53:01.875Z,991.94
2019-01-31T01:54:01.860Z,991.94
2019-01-31T01:55:01.852Z,991.93
2019-01-31T01:56:01.842Z,991.94
2019-01-31T01:57:01.833Z,991.96
2019-01-31T01:58:02.036Z,991.97
2019-01-31T01:59:01.839Z,991.94
2019-01-31T02:00:01.819Z,991.91
2019-01-31T02:01:01.818Z,991.93
2019-01-31T02:02:01.814Z,991.93
2019-01-31T02:03:01.800Z,991.93
2019-01-31T02:04:01.788Z,991.88
2019-01-31T02:05:01.779Z,991.88
2019-01-31T02:06:01.786Z,991.88
2019-01-31T02:07:01.780Z,991.90
2019-01-31T02:08:01.757Z,991.89
2019-01-31T02:09:01.761Z,991.89
2019-01-31T02:10:01.743Z,991.87
2019-01-31T02:11:01.940Z,991.84
2019-01-31T02:12:01.725Z,991.82
2019-01-31T02:13:01.726Z,991.84
2019-01-31T02:14:01.721Z,991.84
2019-01-31T02:15:01.904Z,991.84
2019-01-31T02:16:01.710Z,991.81
2019-01-31T02:17:01.690Z,991.84
2019-01-31T02:18:01.700Z,991.79
2019-01-31T02:19:01.698Z,991.80
2019-01-31T02:20:01.666Z,991.82
2019-01-31T02:21:01.682Z,991.81
2019-01-31T02:22:01.863Z,991.82
2019-01-31T02:23:01.657Z,991.81
2019-01-31T02:24:01.633Z,991.84
2019-01-31T02:25:01.848Z,991.80
2019-01-31T02:26:01.633Z,991.87
2019-01-31T02:27:01.616Z,991.82
2019-01-31T02:28:01.827Z,991.77
2019-01-31T02:29:01.605Z,991.77
2019-01-31T02:30:01.624Z,991.77
2019-01-31T02:31:01.580Z,991.73
2019-01-31T02:32:01.781Z,991.72
2019-01-31T02:33:01.570Z,991.68
2019-01-31T02:34:01.573Z,991.67
2019-01-31T02:35:01.548Z,991.67
2019-01-31T02:36:01.544Z,991.64
2019-01-31T02:37:01.546Z,991.62
2019-01-31T02:38:01.531Z,991.63
2019-01-31T02:39:01.521Z,991.61
2019-01-31T02:40:01.528Z,991.61
2019-01-31T02:41:01.518Z,991.67
2019-01-31T02:42:01.510Z,991.61
2019-01-31T02:43:01.507Z,991.64
2019-01-31T02:44:01.481Z,991.62
2019-01-31T02:45:01.473Z,991.59
2019-01-31T02:46:01.463Z,991.59
2019-01-31T02:47:01.454Z,991.60
2019-01-31T02:48:01.447Z,991.61
2019-01-31T02:49:01.455Z,991.63
2019-01-31T02:50:01.458Z,991.67
2019-01-31T02:51:01.635Z,991.62
2019-01-31T02:52:01.434Z,991.62
2019-01-31T02:53:01.413Z,991.61
2019-01-31T02:54:01.413Z,991.53
2019-01-31T02:55:01.390Z,991.56
2019-01-31T02:56:01.388Z,991.52
2019-01-31T02:57:01.386Z,991.55
2019-01-31T02:58:01.585Z,991.54
2019-01-31T02:59:01.387Z,991.51
2019-01-31T03:00:01.372Z,991.51
2019-01-31T03:01:01.571Z,991.56
2019-01-31T03:02:01.341Z,991.58
2019-01-31T03:03:01.322Z,991.55
2019-01-31T03:04:01.312Z,991.53
2019-01-31T03:05:01.324Z,991.57
2019-01-31T03:06:01.504Z,991.60
2019-01-31T03:07:01.320Z,991.56
2019-01-31T03:08:01.291Z,991.57
2019-01-31T03:09:01.288Z,991.52
2019-01-31T03:10:01.265Z,991.55
2019-01-31T03:11:01.264Z,991.50
2019-01-31T03:12:01.246Z,991.51
2019-01-31T03:13:01.245Z,991.54
2019-01-31T03:14:09.921Z,991.56
2019-01-31T03:15:01.236Z,991.60
2019-01-31T03:16:01.209Z,991.56
2019-01-31T03:17:01.215Z,991.59
2019-01-31T03:18:01.226Z,991.62
2019-01-31T03:19:01.188Z,991.54
2019-01-31T03:20:01.406Z,991.52
2019-01-31T03:21:01.367Z,991.55
2019-01-31T03:22:01.160Z,991.56
2019-01-31T03:23:01.160Z,991.53
2019-01-31T03:24:01.153Z,991.55
2019-01-31T03:25:01.156Z,991.52
2019-01-31T03:26:01.129Z,991.52
2019-01-31T03:27:01.335Z,991.47
2019-01-31T03:28:01.139Z,991.50
2019-01-31T03:29:01.119Z,991.54
2019-01-31T03:30:01.296Z,991.55
2019-01-31T03:31:01.290Z,991.50
2019-01-31T03:32:01.284Z,991.49
2019-01-31T03:33:01.067Z,991.54
2019-01-31T03:34:01.261Z,991.51
2019-01-31T03:35:01.061Z,991.50
2019-01-31T03:36:01.059Z,991.53
2019-01-31T03:37:01.032Z,991.52
2019-01-31T03:38:01.024Z,991.49
2019-01-31T03:39:01.012Z,991.47
2019-01-31T03:40:06.900Z,991.49
2019-01-31T03:41:01.198Z,991.53
2019-01-31T03:42:00.980Z,991.46
2019-01-31T03:43:00.975Z,991.51
2019-01-31T03:44:00.968Z,991.49
2019-01-31T03:45:00.963Z,991.54
2019-01-31T03:46:01.107Z,991.52
2019-01-31T03:47:01.156Z,991.51
2019-01-31T03:48:01.137Z,991.51
2019-01-31T03:49:01.154Z,991.48
2019-01-31T03:50:00.923Z,991.48
2019-01-31T03:51:00.911Z,991.47
2019-01-31T03:52:01.103Z,991.44
2019-01-31T03:53:00.902Z,991.49
2019-01-31T03:54:00.884Z,991.48
2019-01-31T03:55:00.870Z,991.48
2019-01-31T03:56:00.872Z,991.50
2019-01-31T03:57:00.857Z,991.45
2019-01-31T03:58:00.855Z,991.45
2019-01-31T03:59:00.838Z,991.45
2019-01-31T04:00:00.829Z,991.42
2019-01-31T04:01:00.840Z,991.45
2019-01-31T04:02:00.816Z,991.45
2019-01-31T04:03:00.795Z,991.47
2019-01-31T04:04:00.799Z,991.52
2019-01-31T04:05:01.004Z,991.48
2019-01-31T04:06:00.777Z,991.49
2019-01-31T04:07:00.778Z,991.50
2019-01-31T04:08:00.756Z,991.49
2019-01-31T04:09:00.771Z,991.50
2019-01-31T04:10:00.741Z,991.51
2019-01-31T04:11:00.735Z,991.53
2019-01-31T04:12:00.744Z,991.58
2019-01-31T04:13:00.708Z,991.54
2019-01-31T04:14:00.719Z,991.55
2019-01-31T04:15:00.893Z,991.57
2019-01-31T04:16:00.680Z,991.54
2019-01-31T04:17:00.677Z,991.60
2019-01-31T04:18:00.678Z,991.61
2019-01-31T04:19:00.852Z,991.59
2019-01-31T04:20:00.647Z,991.59
2019-01-31T04:21:00.633Z,991.58
2019-01-31T04:22:00.638Z,991.59
2019-01-31T04:23:00.620Z,991.54
2019-01-31T04:24:00.622Z,991.57
2019-01-31T04:25:00.607Z,991.54
2019-01-31T04:26:00.790Z,991.55
2019-01-31T04:27:00.587Z,991.55
2019-01-31T04:28:00.790Z,991.56
2019-01-31T04:29:00.769Z,991.54
2019-01-31T04:30:00.551Z,991.55
2019-01-31T04:31:00.573Z,991.52
2019-01-31T04:32:00.540Z,991.56
2019-01-31T04:33:00.719Z,991.54
2019-01-31T04:34:00.511Z,991.55
2019-01-31T04:35:00.507Z,991.52
2019-01-31T04:36:00.498Z,991.51
2019-01-31T04:37:00.505Z,991.56
2019-01-31T04:38:00.491Z,991.54
2019-01-31T04:39:00.453Z,991.52
2019-01-31T04:40:00.484Z,991.56
2019-01-31T04:41:00.468Z,991.53
2019-01-31T04:42:00.446Z,991.55
2019-01-31T04:43:00.421Z,991.53
2019-01-31T04:44:00.611Z,991.50
2019-01-31T04:45:00.409Z,991.48
2019-01-31T04:46:00.390Z,991.47
2019-01-31T04:47:00.383Z,991.44
2019-01-31T04:48:00.398Z,991.50
2019-01-31T04:49:00.395Z,991.45
2019-01-31T04:50:00.370Z,991.46
2019-01-31T04:51:00.564Z,991.44
2019-01-31T04:52:00.335Z,991.48
2019-01-31T04:53:00.320Z,991.47
2019-01-31T04:54:00.333Z,991.46
2019-01-31T04:55:00.514Z,991.45
2019-01-31T04:56:00.296Z,991.45
2019-01-31T04:57:00.294Z,991.47
2019-01-31T04:58:00.300Z,991.50
2019-01-31T04:59:00.278Z,991.51
2019-01-31T05:00:00.292Z,991.51
2019-01-31T05:01:00.448Z,991.51
2019-01-31T05:02:00.452Z,991.49
2019-01-31T05:03:00.231Z,991.48
2019-01-31T05:04:00.420Z,991.45
2019-01-31T05:05:00.406Z,991.45
2019-01-31T05:06:00.211Z,991.44
2019-01-31T05:07:00.400Z,991.48
2019-01-31T05:08:00.411Z,991.46
2019-01-31T05:09:00.167Z,991.49
2019-01-31T05:10:00.468Z,991.47
2019-01-31T05:11:00.158Z,991.48
2019-01-31T05:12:00.143Z,991.48
2019-01-31T05:13:00.329Z,991.53
2019-01-31T05:14:00.129Z,991.49
2019-01-31T05:15:00.313Z,991.51
2019-01-31T05:16:03.443Z,991.47
2019-01-31T05:17:00.102Z,991.47
2019-01-31T05:18:00.099Z,991.48
2019-01-31T05:19:00.079Z,991.49
2019-01-31T05:20:00.093Z,991.46
2019-01-31T05:21:00.047Z,991.45
2019-01-31T05:22:00.055Z,991.46
2019-01-31T05:23:00.041Z,991.47
2019-01-31T05:24:00.231Z,991.50
2019-01-31T05:25:00.014Z,991.48
2019-01-31T05:26:00.026Z,991.52
2019-01-31T05:26:59.997Z,991.55
2019-01-31T05:27:59.979Z,991.48
2019-01-31T05:28:59.970Z,991.49
2019-01-31T05:30:00.346Z,991.49
2019-01-31T05:30:59.967Z,991.53
2019-01-31T05:31:59.939Z,991.52
2019-01-31T05:32:59.938Z,991.49
2019-01-31T05:33:59.927Z,991.48
2019-01-31T05:34:59.909Z,991.49
2019-01-31T05:35:59.904Z,991.49
2019-01-31T05:36:59.903Z,991.52
2019-01-31T05:37:59.884Z,991.49
2019-01-31T05:38:59.871Z,991.47
2019-01-31T05:39:59.861Z,991.51
2019-01-31T05:40:59.859Z,991.52
2019-01-31T05:41:59.838Z,991.52
2019-01-31T05:42:59.843Z,991.53
2019-01-31T05:43:59.832Z,991.52
2019-01-31T05:44:59.808Z,991.52
2019-01-31T05:45:59.801Z,991.54
2019-01-31T05:46:59.791Z,991.52
2019-01-31T05:47:59.980Z,991.58
2019-01-31T05:48:59.772Z,991.56
2019-01-31T05:49:59.760Z,991.53
2019-01-31T05:50:59.751Z,991.54
2019-01-31T05:51:59.944Z,991.52
2019-01-31T05:52:59.740Z,991.55
2019-01-31T05:53:59.722Z,991.52
2019-01-31T05:54:59.720Z,991.52
2019-01-31T05:55:59.709Z,991.56
2019-01-31T05:56:59.719Z,991.56
2019-01-31T05:57:59.679Z,991.59
2019-01-31T05:58:59.674Z,991.54
2019-01-31T05:59:59.669Z,991.56
2019-01-31T06:00:59.649Z,991.54
2019-01-31T06:01:59.647Z,991.55
2019-01-31T06:02:59.632Z,991.55
2019-01-31T06:03:59.623Z,991.56
2019-01-31T06:04:59.613Z,991.57
2019-01-31T06:05:59.799Z,991.59
2019-01-31T06:07:10.688Z,991.60
2019-01-31T06:07:59.808Z,991.61
2019-01-31T06:08:59.571Z,991.62
2019-01-31T06:09:59.587Z,991.61
2019-01-31T06:11:07.178Z,991.59
2019-01-31T06:11:59.543Z,991.67
2019-01-31T06:12:59.737Z,991.64
2019-01-31T06:13:59.531Z,991.66
2019-01-31T06:14:59.513Z,991.66
2019-01-31T06:15:59.705Z,991.68
2019-01-31T06:16:59.497Z,991.70
2019-01-31T06:17:59.506Z,991.66
2019-01-31T06:18:59.475Z,991.67
2019-01-31T06:19:59.466Z,991.68
2019-01-31T06:20:59.464Z,991.68
2019-01-31T06:21:59.652Z,991.68
2019-01-31T06:22:59.442Z,991.63
2019-01-31T06:23:59.428Z,991.63
2019-01-31T06:24:59.427Z,991.67
2019-01-31T06:25:59.443Z,991.66
2019-01-31T06:26:59.605Z,991.66
2019-01-31T06:27:59.406Z,991.63
2019-01-31T06:28:59.395Z,991.63
2019-01-31T06:29:59.391Z,991.59
2019-01-31T06:30:59.556Z,991.58
2019-01-31T06:31:59.364Z,991.58
2019-01-31T06:32:59.357Z,991.59
2019-01-31T06:33:59.363Z,991.61
2019-01-31T06:34:59.336Z,991.56
2019-01-31T06:35:59.318Z,991.59
2019-01-31T06:36:59.303Z,991.60
2019-01-31T06:37:59.296Z,991.60
2019-01-31T06:38:59.283Z,991.65
2019-01-31T06:39:59.297Z,991.61
2019-01-31T06:40:59.259Z,991.62
2019-01-31T06:41:59.263Z,991.65
2019-01-31T06:42:59.264Z,991.64
2019-01-31T06:43:59.245Z,991.64
2019-01-31T06:44:59.256Z,991.63
2019-01-31T06:45:59.219Z,991.60
2019-01-31T06:46:59.218Z,991.59
2019-01-31T06:47:59.221Z,991.62
2019-01-31T06:48:59.186Z,991.60
2019-01-31T06:49:59.178Z,991.65
2019-01-31T06:50:59.172Z,991.63
2019-01-31T06:51:59.157Z,991.69
2019-01-31T06:52:59.347Z,991.67
2019-01-31T06:53:59.348Z,991.73
2019-01-31T06:54:59.130Z,991.72
2019-01-31T06:55:59.317Z,991.75
2019-01-31T06:56:59.116Z,991.79
2019-01-31T06:57:59.104Z,991.76
2019-01-31T06:58:59.091Z,991.78
2019-01-31T06:59:59.084Z,991.76
2019-01-31T07:00:59.068Z,991.76
2019-01-31T07:01:59.066Z,991.76
2019-01-31T07:02:59.254Z,991.78
2019-01-31T07:03:59.092Z,991.78
2019-01-31T07:04:59.038Z,991.81
2019-01-31T07:05:59.035Z,991.83
2019-01-31T07:06:59.041Z,991.87
2019-01-31T07:07:59.024Z,991.85
2019-01-31T07:08:59.012Z,991.88
2019-01-31T07:09:58.999Z,991.85
2019-01-31T07:10:58.977Z,991.87
2019-01-31T07:11:58.967Z,991.84
2019-01-31T07:12:58.956Z,991.89
2019-01-31T07:13:58.980Z,991.91
2019-01-31T07:14:58.938Z,991.93
2019-01-31T07:15:58.927Z,991.96
2019-01-31T07:16:58.917Z,991.97
2019-01-31T07:17:58.927Z,992.00
2019-01-31T07:18:58.908Z,991.96
2019-01-31T07:19:58.897Z,991.97
2019-01-31T07:20:58.881Z,991.99
2019-01-31T07:21:58.889Z,992.00
2019-01-31T07:22:59.099Z,992.02
2019-01-31T07:23:58.888Z,992.04
2019-01-31T07:24:58.861Z,992.05
2019-01-31T07:25:58.950Z,992.04
2019-01-31T07:26:58.828Z,992.05
2019-01-31T07:27:58.838Z,992.09
2019-01-31T07:28:59.013Z,992.05
2019-01-31T07:29:58.816Z,992.07
2019-01-31T07:30:58.789Z,992.08
2019-01-31T07:31:58.983Z,992.11
2019-01-31T07:32:58.778Z,992.07
2019-01-31T07:33:58.761Z,992.13
2019-01-31T07:34:58.980Z,992.13
2019-01-31T07:35:58.762Z,992.12
2019-01-31T07:36:58.732Z,992.12
2019-01-31T07:37:58.750Z,992.11
2019-01-31T07:38:58.721Z,992.12
2019-01-31T07:39:58.709Z,992.13
2019-01-31T07:40:58.901Z,992.12
2019-01-31T07:41:58.690Z,992.14
2019-01-31T07:42:58.681Z,992.17
2019-01-31T07:43:58.671Z,992.12
2019-01-31T07:44:58.661Z,992.14
2019-01-31T07:45:58.659Z,992.10
2019-01-31T07:46:58.858Z,992.13
2019-01-31T07:47:58.842Z,992.12
2019-01-31T07:48:58.835Z,992.15
2019-01-31T07:49:58.617Z,992.11
2019-01-31T07:50:58.609Z,992.14
2019-01-31T07:51:58.612Z,992.15
2019-01-31T07:52:58.808Z,992.14
2019-01-31T07:53:58.588Z,992.14
2019-01-31T07:55:01.776Z,992.13
2019-01-31T07:55:58.590Z,992.08
2019-01-31T07:56:58.550Z,992.14
2019-01-31T07:57:58.754Z,992.12
2019-01-31T07:58:58.552Z,992.10
2019-01-31T07:59:58.528Z,992.15
2019-01-31T08:00:58.515Z,992.15
2019-01-31T08:01:58.518Z,992.13
2019-01-31T08:02:58.527Z,992.15
2019-01-31T08:04:02.455Z,992.16
2019-01-31T08:04:58.477Z,992.17
2019-01-31T08:05:58.689Z,992.18
2019-01-31T08:06:58.474Z,992.21
2019-01-31T08:07:58.453Z,992.20
2019-01-31T08:08:58.468Z,992.17
2019-01-31T08:09:58.639Z,992.21
2019-01-31T08:10:58.423Z,992.23
2019-01-31T08:11:58.421Z,992.20
2019-01-31T08:12:58.419Z,992.18
2019-01-31T08:13:58.414Z,992.21
2019-01-31T08:14:58.392Z,992.23
2019-01-31T08:15:58.398Z,992.20
2019-01-31T08:16:58.393Z,992.19
2019-01-31T08:17:58.363Z,992.21
2019-01-31T08:18:58.351Z,992.18
2019-01-31T08:19:58.354Z,992.16
2019-01-31T08:20:58.333Z,992.17
2019-01-31T08:21:58.541Z,992.16
2019-01-31T08:23:00.245Z,992.10
2019-01-31T08:23:58.324Z,992.14
2019-01-31T08:24:58.332Z,992.11
2019-01-31T08:25:58.312Z,992.12
2019-01-31T08:26:58.504Z,992.09
2019-01-31T08:27:58.281Z,992.10
2019-01-31T08:28:58.282Z,992.10
2019-01-31T08:29:58.272Z,992.09
2019-01-31T08:30:58.254Z,992.09
2019-01-31T08:31:58.241Z,992.06
2019-01-31T08:32:58.245Z,992.09
2019-01-31T08:33:58.239Z,992.07
2019-01-31T08:34:58.222Z,992.03
2019-01-31T08:35:58.404Z,992.10
2019-01-31T08:36:58.220Z,992.05
2019-01-31T08:37:58.228Z,992.04
2019-01-31T08:38:58.193Z,992.08
2019-01-31T08:39:58.168Z,992.04
2019-01-31T08:40:58.182Z,992.02
2019-01-31T08:42:03.839Z,992.04
2019-01-31T08:42:58.145Z,992.04
2019-01-31T08:43:58.140Z,992.04
2019-01-31T08:44:58.132Z,992.04
2019-01-31T08:45:58.131Z,992.05
2019-01-31T08:46:58.121Z,992.03
2019-01-31T08:47:58.119Z,992.05
2019-01-31T08:48:58.106Z,992.05
2019-01-31T08:49:58.099Z,992.04
2019-01-31T08:50:58.083Z,992.05
2019-01-31T08:51:58.089Z,992.05
2019-01-31T08:52:58.061Z,992.08
2019-01-31T08:53:58.060Z,992.07
2019-01-31T08:54:58.040Z,992.11
2019-01-31T08:55:58.049Z,992.11
2019-01-31T08:56:58.025Z,992.11
2019-01-31T08:57:58.019Z,992.11
2019-01-31T08:58:58.213Z,992.11
2019-01-31T08:59:57.996Z,992.13
2019-01-31T09:00:57.990Z,992.10
2019-01-31T09:01:57.992Z,992.10
2019-01-31T09:02:57.989Z,992.08
2019-01-31T09:03:58.168Z,992.12
2019-01-31T09:04:57.961Z,992.11
2019-01-31T09:05:57.960Z,992.08
2019-01-31T09:06:57.936Z,992.10
2019-01-31T09:07:57.937Z,992.05
2019-01-31T09:08:57.921Z,992.04
2019-01-31T09:09:57.926Z,992.04
2019-01-31T09:10:57.915Z,992.04
2019-01-31T09:11:58.099Z,992.03
2019-01-31T09:12:58.106Z,992.03
2019-01-31T09:13:57.890Z,992.06
2019-01-31T09:14:57.871Z,992.03
2019-01-31T09:15:58.073Z,992.00
2019-01-31T09:16:58.056Z,992.00
2019-01-31T09:17:57.863Z,992.00
2019-01-31T09:18:58.038Z,992.00
2019-01-31T09:19:57.849Z,991.97
2019-01-31T09:20:57.823Z,992.03
2019-01-31T09:21:57.828Z,992.05
2019-01-31T09:22:57.816Z,992.05
2019-01-31T09:23:57.800Z,992.03
2019-01-31T09:24:58.001Z,992.02
2019-01-31T09:25:57.795Z,992.01
2019-01-31T09:26:57.771Z,992.04
2019-01-31T09:27:57.786Z,992.04
2019-01-31T09:28:57.776Z,992.05
2019-01-31T09:29:57.760Z,992.02
2019-01-31T09:30:57.740Z,991.98
2019-01-31T09:31:57.930Z,991.99
2019-01-31T09:32:57.735Z,991.99
2019-01-31T09:33:57.741Z,991.97
2019-01-31T09:34:57.707Z,991.97
2019-01-31T09:35:57.711Z,991.97
2019-01-31T09:36:57.707Z,991.96
2019-01-31T09:37:57.694Z,991.99
2019-01-31T09:38:57.685Z,991.95
2019-01-31T09:39:57.667Z,991.97
2019-01-31T09:40:57.658Z,991.98
2019-01-31T09:41:57.656Z,991.97
2019-01-31T09:42:57.655Z,992.00
2019-01-31T09:43:57.628Z,992.01
2019-01-31T09:44:57.637Z,992.04
2019-01-31T09:45:57.629Z,992.02
2019-01-31T09:46:57.822Z,992.04
2019-01-31T09:47:57.612Z,992.00
2019-01-31T09:48:57.604Z,992.00
2019-01-31T09:49:57.584Z,992.00
2019-01-31T09:50:57.588Z,992.04
2019-01-31T09:51:57.773Z,992.01
2019-01-31T09:52:57.567Z,992.03
2019-01-31T09:53:57.566Z,992.02
2019-01-31T09:54:57.546Z,991.99
2019-01-31T09:55:57.748Z,992.05
2019-01-31T09:56:57.531Z,992.02
2019-01-31T09:57:57.724Z,992.02
2019-01-31T09:58:57.518Z,991.97
2019-01-31T09:59:57.504Z,992.02
2019-01-31T10:00:57.705Z,992.01
2019-01-31T10:01:57.495Z,992.02
2019-01-31T10:02:57.686Z,992.01
2019-01-31T10:03:57.473Z,992.03
2019-01-31T10:04:57.469Z,992.07
2019-01-31T10:05:57.470Z,992.01
2019-01-31T10:06:57.450Z,992.00
2019-01-31T10:07:57.442Z,991.99
2019-01-31T10:08:57.432Z,991.97
2019-01-31T10:09:57.456Z,991.96
2019-01-31T10:10:57.480Z,991.96
2019-01-31T10:11:57.422Z,992.00
2019-01-31T10:12:57.543Z,991.97
2019-01-31T10:13:57.405Z,991.99
2019-01-31T10:14:57.405Z,992.03
2019-01-31T10:15:57.393Z,992.01
2019-01-31T10:16:57.401Z,992.01
2019-01-31T10:17:57.362Z,992.01
2019-01-31T10:18:57.351Z,992.03
2019-01-31T10:19:57.445Z,992.01
2019-01-31T10:20:57.389Z,992.02
2019-01-31T10:21:57.332Z,992.03
2019-01-31T10:22:57.371Z,992.02
2019-01-31T10:23:57.384Z,991.98
2019-01-31T10:24:57.563Z,991.97
2019-01-31T10:25:57.330Z,991.97
2019-01-31T10:26:57.290Z,991.99
2019-01-31T10:27:57.285Z,991.98
2019-01-31T10:28:57.274Z,991.97
2019-01-31T10:29:57.268Z,991.97
2019-01-31T10:30:57.278Z,991.97
2019-01-31T10:31:57.254Z,991.95
2019-01-31T10:32:57.463Z,991.95
2019-01-31T10:33:57.239Z,991.89
2019-01-31T10:34:57.235Z,991.91
2019-01-31T10:35:57.224Z,991.90
2019-01-31T10:36:57.239Z,991.86
2019-01-31T10:37:57.205Z,991.85
2019-01-31T10:38:57.200Z,991.84
2019-01-31T10:39:57.191Z,991.83
2019-01-31T10:40:57.188Z,991.85
2019-01-31T10:41:57.265Z,991.85
2019-01-31T10:42:57.196Z,991.83
2019-01-31T10:43:57.162Z,991.82
2019-01-31T10:44:57.152Z,991.80
2019-01-31T10:45:57.159Z,991.80
2019-01-31T10:46:57.137Z,991.80
2019-01-31T10:47:57.130Z,991.80
2019-01-31T10:48:57.349Z,991.82
2019-01-31T10:49:57.115Z,991.79
2019-01-31T10:50:58.558Z,991.76
2019-01-31T10:51:57.124Z,991.77
2019-01-31T10:52:57.305Z,991.76
2019-01-31T10:53:57.091Z,991.69
2019-01-31T10:54:57.079Z,991.71
2019-01-31T10:55:57.072Z,991.70
2019-01-31T10:56:57.060Z,991.67
2019-01-31T10:57:57.094Z,991.65
2019-01-31T10:58:57.252Z,991.64
2019-01-31T10:59:57.051Z,991.64
2019-01-31T11:00:57.046Z,991.63
2019-01-31T11:01:57.027Z,991.62
2019-01-31T11:02:57.037Z,991.58
2019-01-31T11:03:57.212Z,991.58
2019-01-31T11:04:57.211Z,991.56
2019-01-31T11:05:57.200Z,991.57
2019-01-31T11:06:56.983Z,991.56
2019-01-31T11:07:59.573Z,991.55
2019-01-31T11:08:56.969Z,991.54
2019-01-31T11:09:56.978Z,991.54
2019-01-31T11:10:56.968Z,991.56
2019-01-31T11:11:56.952Z,991.53
2019-01-31T11:13:00.666Z,991.51
2019-01-31T11:13:56.933Z,991.50
2019-01-31T11:14:56.941Z,991.50
2019-01-31T11:15:56.992Z,991.45
2019-01-31T11:16:57.111Z,991.45
2019-01-31T11:17:56.910Z,991.48
2019-01-31T11:19:01.569Z,991.47
2019-01-31T11:19:56.887Z,991.45
2019-01-31T11:20:56.887Z,991.44
2019-01-31T11:21:57.081Z,991.45
2019-01-31T11:22:56.884Z,991.42
2019-01-31T11:23:57.061Z,991.43
2019-01-31T11:24:56.856Z,991.41
2019-01-31T11:25:56.845Z,991.41
2019-01-31T11:26:57.229Z,991.44
2019-01-31T11:27:56.827Z,991.43
2019-01-31T11:28:56.823Z,991.41
2019-01-31T11:29:56.817Z,991.44
2019-01-31T11:30:56.805Z,991.49
2019-01-31T11:31:56.800Z,991.45
2019-01-31T11:32:56.797Z,991.45
2019-01-31T11:33:56.793Z,991.51
2019-01-31T11:34:56.775Z,991.48
2019-01-31T11:35:56.780Z,991.48
2019-01-31T11:36:56.782Z,991.39
2019-01-31T11:37:56.956Z,991.37
2019-01-31T11:38:56.745Z,991.36
2019-01-31T11:39:56.768Z,991.38
2019-01-31T11:40:56.767Z,991.35
2019-01-31T11:41:56.725Z,991.33
2019-01-31T11:42:56.733Z,991.33
2019-01-31T11:43:56.717Z,991.33
2019-01-31T11:44:56.907Z,991.31
2019-01-31T11:45:56.700Z,991.34
2019-01-31T11:46:56.892Z,991.33
2019-01-31T11:47:56.685Z,991.31
2019-01-31T11:48:56.906Z,991.36
2019-01-31T11:49:56.677Z,991.30
2019-01-31T11:50:56.899Z,991.27
2019-01-31T11:51:56.684Z,991.29
2019-01-31T11:52:56.653Z,991.27
2019-01-31T11:53:56.845Z,991.28
2019-01-31T11:54:56.664Z,991.29
2019-01-31T11:55:56.637Z,991.27
2019-01-31T11:57:05.277Z,991.30
2019-01-31T11:57:56.635Z,991.29
2019-01-31T11:58:56.636Z,991.26
2019-01-31T11:59:56.611Z,991.29
2019-01-31T12:00:56.818Z,991.28
2019-01-31T12:01:56.587Z,991.26
2019-01-31T12:02:56.590Z,991.24
2019-01-31T12:03:56.586Z,991.24
2019-01-31T12:04:56.580Z,991.21
2019-01-31T12:05:56.567Z,991.23
2019-01-31T12:06:56.562Z,991.23
2019-01-31T12:07:56.743Z,991.26
2019-01-31T12:08:56.560Z,991.24
2019-01-31T12:09:56.545Z,991.27
2019-01-31T12:10:56.540Z,991.27
2019-01-31T12:11:56.539Z,991.25
2019-01-31T12:12:56.527Z,991.25
2019-01-31T12:13:56.516Z,991.29
2019-01-31T12:14:56.531Z,991.24
2019-01-31T12:15:56.502Z,991.26
2019-01-31T12:16:56.514Z,991.27
2019-01-31T12:17:56.674Z,991.25
2019-01-31T12:18:56.470Z,991.25
2019-01-31T12:19:56.670Z,991.23
2019-01-31T12:20:56.495Z,991.22
2019-01-31T12:21:56.462Z,991.19
2019-01-31T12:22:56.663Z,991.19
2019-01-31T12:23:56.436Z,991.23
2019-01-31T12:24:56.632Z,991.20
2019-01-31T12:25:56.440Z,991.22
2019-01-31T12:26:56.470Z,991.22
2019-01-31T12:27:56.526Z,991.19